createdAt,value
2023-08-18T00:02:17.282Z,20.08
2023-08-18T00:07:24.375Z,20.07
2023-08-18T00:12:31.687Z,20.06
2023-08-18T00:17:37.905Z,20.03
2023-08-18T00:22:45.192Z,20.03
2023-08-18T00:27:55.646Z,20.04
2023-08-18T00:33:03.172Z,20.04
2023-08-18T00:38:10.348Z,20.03
2023-08-18T00:43:17.402Z,20.05
2023-08-18T00:48:25.561Z,20.09
2023-08-18T00:53:34.080Z,20.14
2023-08-18T00:58:41.723Z,20.16
2023-08-18T01:03:49.114Z,20.17
2023-08-18T01:08:55.351Z,20.18
2023-08-18T01:14:12.628Z,20.12
2023-08-18T01:19:22.903Z,20.11
2023-08-18T01:24:30.429Z,20.09
2023-08-18T01:29:36.098Z,20.03
2023-08-18T01:34:45.742Z,19.87
2023-08-18T01:39:53.627Z,19.71
2023-08-18T01:45:05.466Z,19.59
2023-08-18T01:50:13.288Z,19.51
2023-08-18T01:55:20.338Z,19.45
2023-08-18T02:00:27.398Z,19.45
2023-08-18T02:05:34.561Z,19.46
2023-08-18T02:10:44.323Z,19.48
2023-08-18T02:15:51.397Z,19.48
2023-08-18T02:21:03.506Z,19.49
2023-08-18T02:26:10.666Z,19.53
2023-08-18T02:31:17.735Z,19.55
2023-08-18T02:36:25.362Z,19.57
2023-08-18T02:41:32.504Z,19.53
2023-08-18T02:46:40.843Z,19.49
2023-08-18T02:51:49.646Z,19.42
2023-08-18T02:56:56.720Z,19.35
2023-08-18T03:02:04.319Z,19.23
2023-08-18T03:07:11.396Z,19.16
2023-08-18T03:12:18.513Z,19.12
2023-08-18T03:17:26.654Z,19.11
2023-08-18T03:22:35.923Z,19.14
2023-08-18T03:27:43.727Z,19.13
2023-08-18T03:32:53.202Z,19.11
2023-08-18T03:38:00.491Z,19.13
2023-08-18T03:43:07.929Z,19.14
2023-08-18T03:48:13.505Z,19.14
2023-08-18T03:53:23.335Z,19.16
2023-08-18T03:58:30.480Z,19.21
2023-08-18T04:03:39.547Z,19.26
2023-08-18T04:08:47.358Z,19.32
2023-08-18T04:13:55.509Z,19.35
2023-08-18T04:19:04.775Z,19.29
2023-08-18T04:24:13.822Z,19.24
2023-08-18T04:29:21.418Z,19.25
2023-08-18T04:34:31.440Z,19.38
2023-08-18T04:39:38.780Z,19.60
2023-08-18T04:44:46.714Z,19.87
2023-08-18T04:49:53.903Z,20.22
2023-08-18T04:55:01.078Z,20.67
2023-08-18T05:00:10.518Z,21.12
2023-08-18T05:05:17.816Z,21.36
2023-08-18T05:10:24.804Z,21.47
2023-08-18T05:15:31.956Z,21.75
2023-08-18T05:20:39.341Z,22.03
2023-08-18T05:25:49.270Z,22.37
2023-08-18T05:30:56.819Z,22.74
2023-08-18T05:36:07.059Z,22.98
2023-08-18T05:41:16.090Z,23.13
2023-08-18T05:46:23.221Z,23.33
2023-08-18T05:51:28.666Z,23.57
2023-08-18T05:56:35.684Z,23.72
2023-08-18T06:01:43.162Z,23.78
2023-08-18T06:06:50.301Z,23.96
2023-08-18T06:11:55.862Z,24.02
2023-08-18T06:17:02.981Z,23.91
2023-08-18T06:22:08.461Z,23.76
2023-08-18T06:27:15.478Z,23.66
2023-08-18T06:32:22.620Z,23.81
2023-08-18T06:37:28.317Z,24.06
2023-08-18T06:42:35.384Z,24.60
2023-08-18T06:47:42.451Z,25.10
2023-08-18T06:52:49.523Z,25.51
2023-08-18T06:57:56.556Z,25.85
2023-08-18T07:03:20.913Z,26.20
2023-08-18T07:08:43.534Z,26.41
2023-08-18T07:13:50.654Z,26.47
2023-08-18T07:18:57.913Z,26.47
2023-08-18T07:24:05.331Z,26.46
2023-08-18T07:29:12.400Z,26.28
2023-08-18T07:34:19.518Z,26.10
2023-08-18T07:39:27.258Z,25.99
2023-08-18T07:44:34.324Z,26.20
2023-08-18T07:49:41.510Z,26.56
2023-08-18T07:54:48.788Z,26.90
2023-08-18T07:59:55.935Z,27.30
2023-08-18T08:05:06.917Z,27.40
2023-08-18T08:10:14.653Z,27.72
2023-08-18T08:15:21.807Z,28.33
2023-08-18T08:20:30.705Z,28.33
2023-08-18T08:25:39.621Z,27.87
2023-08-18T08:30:47.132Z,27.43
2023-08-18T08:35:54.665Z,27.09
2023-08-18T08:41:03.305Z,27.02
2023-08-18T08:46:15.757Z,27.31
2023-08-18T08:51:28.330Z,27.68
2023-08-18T08:56:37.436Z,28.02
2023-08-18T09:01:45.071Z,28.40
2023-08-18T09:06:52.677Z,28.73
2023-08-18T09:12:07.244Z,28.97
2023-08-18T09:17:14.464Z,29.33
2023-08-18T09:22:24.702Z,29.71
2023-08-18T09:27:33.440Z,30.04
2023-08-18T09:32:42.427Z,30.36
2023-08-18T09:37:55.910Z,30.59
2023-08-18T09:43:06.874Z,30.74
2023-08-18T09:48:17.144Z,30.70
2023-08-18T09:53:29.323Z,30.72
2023-08-18T09:58:49.269Z,30.84
2023-08-18T10:03:57.569Z,30.98
2023-08-18T10:09:05.686Z,31.06
2023-08-18T10:14:12.975Z,31.10
2023-08-18T10:19:40.014Z,31.08
2023-08-18T10:24:49.686Z,31.07
2023-08-18T10:29:58.791Z,31.00
2023-08-18T10:35:25.709Z,30.88
2023-08-18T10:40:32.565Z,30.71
2023-08-18T10:45:39.739Z,30.71
2023-08-18T10:50:48.340Z,30.77
2023-08-18T10:55:56.099Z,30.82
2023-08-18T11:01:04.910Z,30.86
2023-08-18T11:06:12.147Z,30.83
2023-08-18T11:11:22.150Z,30.60
2023-08-18T11:16:29.256Z,30.51
2023-08-18T11:21:37.848Z,30.60
2023-08-18T11:26:45.412Z,30.61
2023-08-18T11:31:52.447Z,30.51
2023-08-18T11:37:06.431Z,30.38
2023-08-18T11:42:14.431Z,30.32
2023-08-18T11:47:24.749Z,30.36
2023-08-18T11:52:42.403Z,30.55
2023-08-18T11:57:49.608Z,30.70
2023-08-18T12:02:56.758Z,30.72
2023-08-18T12:08:10.759Z,30.79
2023-08-18T12:13:18.355Z,30.85
2023-08-18T12:18:25.675Z,30.77
2023-08-18T12:23:33.237Z,30.66
2023-08-18T12:28:40.370Z,30.73
2023-08-18T12:33:47.504Z,31.01
2023-08-18T12:38:54.554Z,31.06
2023-08-18T12:44:01.585Z,30.96
2023-08-18T12:49:09.488Z,30.96
2023-08-18T12:54:16.863Z,30.99
2023-08-18T12:59:25.130Z,30.79
2023-08-18T13:04:32.520Z,30.47
2023-08-18T13:09:40.122Z,30.16
2023-08-18T13:14:47.652Z,29.94
2023-08-18T13:19:57.797Z,29.86
2023-08-18T13:25:13.036Z,29.78
2023-08-18T13:30:20.505Z,29.73
2023-08-18T13:35:27.856Z,29.77
2023-08-18T13:40:34.926Z,29.75
2023-08-18T13:45:42.091Z,29.71
2023-08-18T13:50:49.165Z,29.60
2023-08-18T13:55:56.384Z,29.41
2023-08-18T14:01:05.470Z,29.14
2023-08-18T14:06:12.574Z,28.83
2023-08-18T14:11:19.660Z,28.66
2023-08-18T14:16:29.101Z,28.63
2023-08-18T14:21:37.887Z,28.55
2023-08-18T14:26:45.017Z,28.43
2023-08-18T14:31:52.069Z,28.49
2023-08-18T14:36:59.380Z,28.54
2023-08-18T14:42:07.120Z,28.52
2023-08-18T14:47:14.314Z,28.57
2023-08-18T14:52:21.880Z,28.59
2023-08-18T14:57:28.888Z,28.65
2023-08-18T15:02:36.322Z,28.76
2023-08-18T15:07:43.546Z,28.91
2023-08-18T15:12:51.485Z,28.94
2023-08-18T15:17:58.693Z,28.88
2023-08-18T15:23:06.062Z,28.77
2023-08-18T15:28:13.244Z,28.71
2023-08-18T15:33:20.824Z,28.66
2023-08-18T15:38:27.961Z,28.64
2023-08-18T15:43:34.966Z,28.66
2023-08-18T15:48:42.064Z,28.72
2023-08-18T15:53:49.162Z,28.70
2023-08-18T15:58:56.361Z,28.64
2023-08-18T16:04:04.057Z,28.52
2023-08-18T16:09:11.286Z,28.39
2023-08-18T16:14:48.188Z,28.27
2023-08-18T16:19:45.535Z,28.15
2023-08-18T16:24:52.633Z,28.04
2023-08-18T16:30:00.160Z,27.94
2023-08-18T16:35:08.531Z,27.84
2023-08-18T16:40:15.937Z,27.75
2023-08-18T16:45:23.129Z,27.67
2023-08-18T16:50:30.165Z,27.57
2023-08-18T16:55:38.827Z,27.44
2023-08-18T17:00:46.913Z,27.29
2023-08-18T17:05:54.147Z,27.15
2023-08-18T17:11:01.793Z,26.97
2023-08-18T17:16:09.163Z,26.77
2023-08-18T17:21:16.418Z,26.60
2023-08-18T17:26:23.863Z,26.47
2023-08-18T17:31:31.126Z,26.35
2023-08-18T17:36:38.526Z,26.15
2023-08-18T17:41:45.576Z,25.97
2023-08-18T17:46:52.685Z,25.84
2023-08-18T17:51:59.849Z,25.78
2023-08-18T17:57:11.082Z,25.72
2023-08-18T18:02:19.815Z,25.62
2023-08-18T18:07:26.998Z,25.52
2023-08-18T18:12:34.159Z,25.41
2023-08-18T18:17:41.364Z,25.29
2023-08-18T18:22:48.840Z,25.16
2023-08-18T18:27:56.340Z,25.03
2023-08-18T18:33:03.721Z,24.91
2023-08-18T18:38:10.724Z,24.80
2023-08-18T18:43:17.882Z,24.69
2023-08-18T18:48:24.896Z,24.64
2023-08-18T18:53:30.419Z,24.65
2023-08-18T18:58:37.598Z,24.63
2023-08-18T19:03:44.732Z,24.59
2023-08-18T19:08:50.257Z,24.56
2023-08-18T19:13:57.470Z,24.51
2023-08-18T19:19:04.593Z,24.44
2023-08-18T19:24:10.299Z,24.40
2023-08-18T19:29:17.754Z,24.39
2023-08-18T19:34:25.412Z,24.40
2023-08-18T19:39:34.253Z,24.44
2023-08-18T19:44:41.373Z,24.38
2023-08-18T19:49:49.861Z,24.26
2023-08-18T19:54:57.120Z,24.21
2023-08-18T20:00:07.376Z,24.17
2023-08-18T20:05:20.805Z,24.14
2023-08-18T20:10:30.497Z,24.15
2023-08-18T20:15:39.542Z,24.13
2023-08-18T20:20:48.007Z,24.04
2023-08-18T20:26:03.682Z,23.91
2023-08-18T20:31:11.375Z,23.84
2023-08-18T20:36:19.828Z,23.81
2023-08-18T20:41:27.010Z,23.67
2023-08-18T20:46:33.623Z,23.48
2023-08-18T20:51:40.774Z,23.26
2023-08-18T20:56:46.391Z,23.21
2023-08-18T21:01:53.567Z,23.20
2023-08-18T21:06:59.469Z,23.07
2023-08-18T21:12:07.087Z,22.76
2023-08-18T21:17:14.090Z,22.51
2023-08-18T21:22:21.147Z,22.43
2023-08-18T21:27:28.256Z,22.45
2023-08-18T21:32:35.786Z,22.51
2023-08-18T21:37:43.394Z,22.60
2023-08-18T21:42:50.609Z,22.66
2023-08-18T21:47:56.331Z,22.70
2023-08-18T21:53:03.594Z,22.66
2023-08-18T21:58:09.486Z,22.60
2023-08-18T22:03:16.717Z,22.54
2023-08-18T22:08:22.284Z,22.50
2023-08-18T22:13:29.395Z,22.46
2023-08-18T22:18:37.580Z,22.36
2023-08-18T22:23:45.118Z,22.28
2023-08-18T22:28:52.259Z,22.21
2023-08-18T22:33:59.407Z,22.14
2023-08-18T22:39:06.882Z,22.09
2023-08-18T22:44:14.033Z,22.05
2023-08-18T22:49:21.104Z,21.97
2023-08-18T22:54:28.343Z,21.86
2023-08-18T22:59:33.960Z,21.79
2023-08-18T23:04:41.445Z,21.74
2023-08-18T23:09:47.259Z,21.70
2023-08-18T23:14:54.317Z,21.66
2023-08-18T23:20:01.521Z,21.66
2023-08-18T23:25:10.408Z,21.67
2023-08-18T23:30:17.801Z,21.68
2023-08-18T23:35:27.403Z,21.70
2023-08-18T23:40:34.464Z,21.71
2023-08-18T23:45:41.529Z,21.72
2023-08-18T23:50:48.510Z,21.75
2023-08-18T23:55:55.579Z,21.78
